Almo, Kentucky
Current Conditions -  °F | °C
As of 6:55 AM on Saturday 22 Nov 2014 (Local Time) from KCEY Reporting Station
Broken Clouds Broken Clouds  
Wind Chill: 10°   Ceiling: 7000
Heat Index: 10°   Visibility: 10mi
Dew Point:   Wind: 8mph
Humidity: 66%   Direction: 180°S
Pressure: 30.28"   Gusts: NA
Location:  36.69°N, 88.28°W
Report Text: KCEY 221255Z AUTO 18007KT 10SM BKN070 BKN080 10/04 A3028 RMK AO1
Loading
Personal Weather Stations






























Interactive Weather Map New forecast layout! Learn more

10-Day Weather Forecast

Advertisements
Track Severe Weather on mobile